AirNav   Air Wisconsin Up To $57,000 Bonus
 
 1463 users online  

30MI Wolverton's Field Airport
Buchanan, Michigan, USA

GOING TO BUCHANAN?


FAA INFORMATION EFFECTIVE 08 OCTOBER 2020

Location

FAA Identifier: 30MI
Lat/Long: 41-51-33.1660N 086-19-40.0480W
41-51.552767N 086-19.667467W
41.8592128,-86.3277911
(estimated)
Elevation: 750 ft. / 229 m (estimated)
Variation: 02W (1985)
From city: 3 miles NE of BUCHANAN, MI
Time zone: UTC -4 (UTC -5 during Standard Time)
Zip code: 49120

Airport Operations

Airport use: Private use. Permission required prior to landing
Activation date: 04/1988
Control tower: no
ARTCC: CHICAGO CENTER
FSS: LANSING FLIGHT SERVICE STATION
Attendance: 0800-DUSK
Wind indicator: yes
Segmented circle: no

Airport Communications

WX ASOS at SBN (9 nm S): PHONE 574-251-2652
WX ASOS at BEH (17 nm N): 121.55 (269-925-9008)
WX AWOS-3 at EKM (17 nm SE): 124.475 (574-264-9002)

Nearby radio navigation aids

VOR radial/distance  VOR name  Freq  Var
GIJr356/5.5GIPPER VORTAC115.4000E
ELXr208/19.4KEELER VOR/DME116.6000E
GSHr326/24.1GOSHEN VORTAC113.7000E
OXIr024/35.3KNOX VOR/DME115.6000E
PMMr195/37.7PULLMAN VOR/DME112.1000E

 
NDB name  Hdg/Dist  Freq  Var  ID
MISHA335/10.434103WSB ... -...

Airport Services

Runway Information

Runway 3/21

Dimensions: 1200 x 135 ft. / 366 x 41 m
Surface: turf
RUNWAY 3  RUNWAY 21
Traffic pattern: leftleft

Airport Ownership and Management from official FAA records

Ownership: Privately-owned
Owner: JOHNNY MONROE
2835 GEYER RD
NILES, MI 49120
Phone 269 612-2030
Manager: JOHNNY MONROE
2835 GEYER RD
NILES, MI 49120
Phone 269 612-2030

Airport Operational Statistics

Aircraft based on the field: 7
Single engine airplanes: 1
Ultralights: 6
    

Additional Remarks

FOR CD CTC CHICAGO ARTCC AT 630-906-8921.

Instrument Procedures

There are no published instrument procedures at 30MI.

Some nearby airports with instrument procedures:

3TR - Jerry Tyler Memorial Airport (5 nm E)
C20 - Andrews University Airpark (6 nm N)
KSBN - South Bend International Airport (9 nm S)
C91 - Dowagiac Municipal Airport (12 nm NE)
KBEH - Southwest Michigan Regional Airport (17 nm N)
KEKM - Elkhart Municipal Airport (17 nm SE)
 
Loc | Ops | Rwys | IFR | FBO | Links
Com | Nav | Svcs | Stats | Notes
Area around 30MI (Wolverton's Field Airport)
 
Road maps at: MapQuest Bing Google
 
Aerial photo
WARNING: Photo may not be current or correct
Aerial photo of 30MI (Wolverton's Field Airport)
Do you have a better or more recent aerial photo of Wolverton's Field Airport that you would like to share? If so, please send us your photo.

 
Sectional chart

 
Airport distance calculator
Flying to Wolverton's Field Airport? Find the distance to fly.

From to 30MI

Sunrise and sunset
Times for 28-Oct-2020
 Local
(UTC-4)
 Zulu
(UTC)
Morning civil twilight07:4611:46
Sunrise08:1512:15
Sunset18:4322:43
Evening civil twilight19:1223:12

Current date and time
Zulu (UTC)  28-Oct-2020 15:24:06
Local (UTC-4)  28-Oct-2020 11:24:06
 
METAR
KSBN 
10nm S 
281454Z 23009KT 10SM CLR 04/00 A3009 RMK AO2 SLP195 60000 T00390000 56002
KBEH 
17nm N 
281453Z AUTO 26014KT 10SM CLR 07/M01 A3006 RMK AO2 SLP183 T00671011 58004
KEKM 
17nm SE 
281450Z 23006KT 10SM CLR 05/00 A3008 RMK AO2
TAF
KSBN 
10nm S 
280700Z 2807/2906 24005KT P6SM SCT007 OVC012 TEMPO 2807/2808 5SM BR OVC007 FM280900 24005KT P6SM FEW080 FM281200 23009KT P6SM FEW250
NOTAMs
Click for the latest NOTAMs
NOTAMs are issued by the DoD/FAA and will open in a separate window not controlled by AirNav.

 

 
 

Would you like to see your business listed on this page?

 If your business provides an interesting product or service to pilots, flight crews, aircraft, or users of the Wolverton's Field Airport, you should consider listing it here.  To start the listing process, click on the button below
 
Add a business
 

Other Pages about Wolverton's Field Airport

Update a link
 
Copyright © AirNav, LLC. All rights reserved. Privacy Policy  Contact